createdAt,value
2018-08-10T00:01:18.267Z,95.10
2018-08-10T00:03:50.990Z,95.80
2018-08-10T00:06:23.390Z,96.30
2018-08-10T00:08:55.833Z,96.30
2018-08-10T00:11:28.189Z,96.40
2018-08-10T00:14:00.618Z,96.20
2018-08-10T00:16:33.027Z,96.50
2018-08-10T00:19:05.421Z,96.10
2018-08-10T00:21:37.809Z,96.10
2018-08-10T00:24:10.210Z,95.90
2018-08-10T00:26:42.841Z,95.70
2018-08-10T00:29:15.457Z,95.10
2018-08-10T00:31:47.868Z,94.80
2018-08-10T00:34:20.249Z,94.50
2018-08-10T00:36:52.681Z,94.60
2018-08-10T00:39:25.349Z,94.20
2018-08-10T00:41:57.754Z,94.00
2018-08-10T00:44:30.173Z,94.40
2018-08-10T00:47:02.582Z,94.20
2018-08-10T00:49:35.018Z,94.10
2018-08-10T00:52:07.413Z,94.10
2018-08-10T00:54:39.802Z,93.30
2018-08-10T00:57:12.545Z,93.90
2018-08-10T00:59:45.247Z,93.90
2018-08-10T01:02:17.921Z,94.00
2018-08-10T01:04:50.605Z,93.70
2018-08-10T01:07:22.985Z,93.70
2018-08-10T01:09:55.379Z,93.20
2018-08-10T01:12:27.763Z,93.20
2018-08-10T01:15:00.178Z,92.60
2018-08-10T01:17:32.662Z,92.20
2018-08-10T01:20:09.439Z,92.20
2018-08-10T01:22:42.117Z,91.60
2018-08-10T01:25:14.737Z,92.00
2018-08-10T01:27:47.167Z,91.90
2018-08-10T01:30:19.585Z,91.90
2018-08-10T01:32:51.998Z,91.50
2018-08-10T01:35:24.409Z,91.50
2018-08-10T01:37:57.025Z,91.20
2018-08-10T01:40:29.425Z,91.00
2018-08-10T01:43:01.817Z,91.70
2018-08-10T01:45:34.898Z,91.10
2018-08-10T01:48:07.522Z,91.50
2018-08-10T01:50:39.929Z,91.30
2018-08-10T01:53:12.329Z,91.40
2018-08-10T01:55:44.725Z,91.60
2018-08-10T01:58:17.120Z,91.60
2018-08-10T02:00:49.522Z,91.80
2018-08-10T02:03:21.906Z,91.70
2018-08-10T02:05:54.650Z,91.70
2018-08-10T02:08:27.062Z,91.90
2018-08-10T02:10:59.693Z,92.00
2018-08-10T02:13:32.110Z,91.90
2018-08-10T02:16:04.833Z,91.70
2018-08-10T02:18:37.231Z,91.90
2018-08-10T02:21:09.907Z,91.90
2018-08-10T02:23:42.312Z,91.80
2018-08-10T02:26:14.941Z,91.70
2018-08-10T02:28:47.563Z,91.70
2018-08-10T02:31:19.987Z,91.70
2018-08-10T02:33:52.386Z,91.80
2018-08-10T02:36:24.789Z,91.80
2018-08-10T02:38:57.462Z,92.10
2018-08-10T02:41:29.869Z,91.60
2018-08-10T02:44:02.361Z,91.90
2018-08-10T02:46:35.050Z,92.00
2018-08-10T02:49:07.921Z,91.90
2018-08-10T02:51:40.366Z,92.00
2018-08-10T02:54:12.763Z,91.90
2018-08-10T02:56:45.166Z,92.30
2018-08-10T02:59:17.545Z,92.20
2018-08-10T03:01:50.216Z,92.40
2018-08-10T03:04:22.606Z,92.30
2018-08-10T03:06:55.015Z,92.50
2018-08-10T03:09:27.727Z,92.30
2018-08-10T03:12:00.150Z,92.50
2018-08-10T03:14:32.542Z,92.60
2018-08-10T03:17:05.302Z,92.80
2018-08-10T03:19:37.711Z,92.80
2018-08-10T03:22:10.197Z,92.80
2018-08-10T03:24:42.518Z,92.70
2018-08-10T03:27:14.928Z,93.20
2018-08-10T03:29:47.665Z,93.00
2018-08-10T03:32:20.318Z,93.10
2018-08-10T03:34:52.733Z,93.20
2018-08-10T03:37:25.391Z,93.30
2018-08-10T03:39:57.774Z,93.20
2018-08-10T03:42:30.185Z,93.60
2018-08-10T03:45:02.605Z,93.50
2018-08-10T03:47:35.026Z,93.70
2018-08-10T03:50:07.783Z,94.10
2018-08-10T03:52:40.177Z,93.80
2018-08-10T03:55:12.557Z,93.90
2018-08-10T03:57:44.993Z,93.90
2018-08-10T04:00:17.368Z,94.00
2018-08-10T04:02:49.766Z,94.00
2018-08-10T04:05:22.295Z,94.00
2018-08-10T04:07:54.702Z,94.20
2018-08-10T04:10:27.077Z,94.00
2018-08-10T04:12:59.485Z,94.30
2018-08-10T04:15:31.885Z,94.40
2018-08-10T04:18:04.570Z,94.40
2018-08-10T04:20:36.966Z,94.00
2018-08-10T04:23:09.355Z,94.20
2018-08-10T04:25:41.750Z,94.00
2018-08-10T04:28:14.153Z,94.20
2018-08-10T04:30:46.532Z,93.90
2018-08-10T04:33:19.213Z,93.80
2018-08-10T04:35:51.599Z,93.80
2018-08-10T04:38:24.341Z,93.90
2018-08-10T04:40:56.734Z,93.80
2018-08-10T04:43:29.134Z,93.80
2018-08-10T04:46:01.537Z,93.60
2018-08-10T04:48:34.225Z,93.10
2018-08-10T04:51:06.678Z,92.80
2018-08-10T04:53:39.080Z,93.40
2018-08-10T04:56:11.479Z,92.60
2018-08-10T04:58:43.943Z,92.50
2018-08-10T05:01:16.377Z,92.50
2018-08-10T05:03:48.939Z,92.10
2018-08-10T05:06:21.545Z,91.00
2018-08-10T05:08:53.954Z,90.20
2018-08-10T05:11:26.346Z,90.00
2018-08-10T05:13:58.798Z,89.50
2018-08-10T05:16:31.201Z,88.90
2018-08-10T05:19:03.942Z,86.90
2018-08-10T05:21:36.334Z,86.00
2018-08-10T05:24:08.763Z,84.20
2018-08-10T05:26:41.194Z,81.90
2018-08-10T05:29:13.633Z,80.50
2018-08-10T05:31:46.027Z,78.60
2018-08-10T05:34:18.434Z,75.60
2018-08-10T05:36:50.874Z,71.50
2018-08-10T05:39:23.277Z,71.10
2018-08-10T05:41:55.667Z,68.00
2018-08-10T05:44:28.086Z,67.70
2018-08-10T05:47:00.587Z,64.90
2018-08-10T05:49:32.951Z,61.90
2018-08-10T05:52:05.690Z,61.40
2018-08-10T05:54:38.082Z,61.90
2018-08-10T05:57:10.470Z,60.00
2018-08-10T05:59:42.871Z,59.00
2018-08-10T06:02:15.270Z,60.10
2018-08-10T06:04:47.670Z,57.70
2018-08-10T06:07:20.069Z,57.40
2018-08-10T06:09:52.802Z,55.80
2018-08-10T06:12:25.277Z,54.50
2018-08-10T06:14:57.693Z,52.90
2018-08-10T06:17:30.110Z,53.20
2018-08-10T06:20:02.717Z,51.80
2018-08-10T06:22:35.021Z,50.50
2018-08-10T06:25:07.842Z,49.50
2018-08-10T06:27:40.239Z,48.80
2018-08-10T06:30:12.965Z,48.80
2018-08-10T06:32:45.594Z,48.70
2018-08-10T06:35:18.323Z,48.00
2018-08-10T06:37:50.709Z,46.60
2018-08-10T06:40:23.118Z,46.20
2018-08-10T06:42:55.513Z,44.70
2018-08-10T06:45:28.233Z,44.50
2018-08-10T06:48:00.667Z,44.50
2018-08-10T06:50:33.728Z,43.50
2018-08-10T06:53:06.140Z,43.60
2018-08-10T06:55:38.574Z,44.40
2018-08-10T06:58:10.976Z,44.40
2018-08-10T07:00:43.475Z,43.40
2018-08-10T07:03:15.799Z,43.20
2018-08-10T07:05:48.463Z,43.60
2018-08-10T07:08:20.865Z,43.20
2018-08-10T07:10:53.582Z,43.00
2018-08-10T07:13:26.136Z,43.10
2018-08-10T07:15:58.437Z,43.10
2018-08-10T07:18:31.218Z,42.70
2018-08-10T07:21:04.122Z,42.50
2018-08-10T07:26:09.117Z,43.10
2018-08-10T07:28:41.523Z,44.10
2018-08-10T07:31:13.915Z,44.00
2018-08-10T07:33:46.321Z,45.70
2018-08-10T07:36:18.760Z,46.80
2018-08-10T07:38:51.155Z,47.20
2018-08-10T07:41:23.541Z,47.60
2018-08-10T07:43:55.954Z,46.60
2018-08-10T07:46:28.366Z,45.50
2018-08-10T07:49:01.052Z,45.10
2018-08-10T07:51:33.457Z,44.90
2018-08-10T07:54:06.034Z,45.00
2018-08-10T07:56:38.429Z,45.20
2018-08-10T08:01:43.054Z,45.50
2018-08-10T08:04:15.463Z,46.90
2018-08-10T08:06:47.843Z,47.00
2018-08-10T08:09:20.253Z,48.60
2018-08-10T08:11:52.679Z,49.00
2018-08-10T08:14:25.093Z,49.10
2018-08-10T08:16:57.470Z,49.70
2018-08-10T08:19:30.033Z,50.80
2018-08-10T08:22:06.262Z,50.90
2018-08-10T08:24:38.659Z,51.10
2018-08-10T08:27:11.079Z,51.40
2018-08-10T08:29:43.471Z,51.60
2018-08-10T08:32:15.880Z,50.70
2018-08-10T08:34:48.363Z,50.90
2018-08-10T08:37:21.013Z,51.00
2018-08-10T08:40:30.957Z,52.00
2018-08-10T08:43:03.436Z,52.10
2018-08-10T08:45:42.883Z,51.60
2018-08-10T08:48:15.197Z,52.70
2018-08-10T08:50:47.599Z,52.80
2018-08-10T08:53:19.986Z,52.30
2018-08-10T08:55:54.061Z,52.00
2018-08-10T08:58:26.450Z,51.70
2018-08-10T09:00:58.858Z,52.10
2018-08-10T09:03:42.621Z,50.90
2018-08-10T09:06:15.017Z,50.00
2018-08-10T09:08:58.853Z,48.40
2018-08-10T09:11:31.529Z,46.30
2018-08-10T09:14:38.530Z,45.10
2018-08-10T09:17:10.960Z,43.70
2018-08-10T09:20:12.411Z,43.10
2018-08-10T09:22:45.111Z,42.20
2018-08-10T09:25:18.045Z,42.00
2018-08-10T09:27:50.437Z,42.20
2018-08-10T09:30:22.867Z,41.70
2018-08-10T09:32:55.260Z,40.20
2018-08-10T09:35:27.657Z,39.40
2018-08-10T09:38:00.050Z,39.20
2018-08-10T09:40:32.457Z,39.70
2018-08-10T09:43:05.067Z,40.10
2018-08-10T09:45:37.852Z,41.10
2018-08-10T09:48:10.254Z,42.10
2018-08-10T09:50:42.663Z,42.00
2018-08-10T09:53:15.310Z,41.20
2018-08-10T09:55:47.704Z,40.90
2018-08-10T09:58:20.085Z,41.30
2018-08-10T10:00:52.477Z,42.80
2018-08-10T10:03:24.864Z,42.00
2018-08-10T10:05:57.284Z,42.90
2018-08-10T10:08:29.729Z,41.60
2018-08-10T10:11:02.113Z,41.10
2018-08-10T10:13:34.492Z,38.40
2018-08-10T10:16:06.889Z,38.50
2018-08-10T10:18:39.323Z,36.40
2018-08-10T10:21:11.717Z,37.00
2018-08-10T10:23:44.402Z,36.40
2018-08-10T10:26:16.810Z,35.70
2018-08-10T10:28:49.195Z,35.50
2018-08-10T10:31:21.593Z,34.90
2018-08-10T10:33:54.294Z,34.60
2018-08-10T10:36:26.686Z,34.40
2018-08-10T10:38:59.078Z,35.60
2018-08-10T10:41:31.781Z,37.80
2018-08-10T10:44:04.135Z,38.00
2018-08-10T10:46:36.537Z,38.70
2018-08-10T10:49:08.917Z,37.50
2018-08-10T10:51:41.323Z,36.60
2018-08-10T10:54:13.697Z,37.00
2018-08-10T10:56:46.504Z,36.90
2018-08-10T10:59:19.019Z,36.90
2018-08-10T11:01:51.542Z,38.00
2018-08-10T11:04:23.918Z,37.80
2018-08-10T11:06:56.698Z,36.90
2018-08-10T11:09:29.078Z,38.00
2018-08-10T11:12:01.745Z,38.20
2018-08-10T11:14:34.357Z,38.60
2018-08-10T11:17:06.999Z,39.00
2018-08-10T11:19:39.375Z,38.20
2018-08-10T11:22:11.782Z,37.60
2018-08-10T11:24:44.170Z,38.60
2018-08-10T11:27:16.897Z,38.40
2018-08-10T11:29:49.282Z,38.30
2018-08-10T11:32:21.665Z,38.10
2018-08-10T11:34:54.389Z,37.30
2018-08-10T11:37:26.792Z,38.80
2018-08-10T11:39:59.169Z,37.30
2018-08-10T11:42:31.599Z,38.10
2018-08-10T11:45:06.118Z,38.50
2018-08-10T11:47:38.565Z,38.40
2018-08-10T11:50:11.074Z,39.10
2018-08-10T11:52:43.686Z,39.40
2018-08-10T11:55:16.069Z,39.20
2018-08-10T11:57:48.464Z,39.90
2018-08-10T12:00:20.870Z,38.90
2018-08-10T12:02:53.274Z,38.00
2018-08-10T12:05:26.227Z,38.20
2018-08-10T12:07:58.938Z,37.60
2018-08-10T12:10:31.335Z,38.60
2018-08-10T12:13:04.049Z,37.90
2018-08-10T12:15:36.435Z,37.60
2018-08-10T12:18:08.830Z,39.80
2018-08-10T12:20:41.213Z,39.80
2018-08-10T12:23:13.605Z,38.40
2018-08-10T12:25:45.980Z,39.70
2018-08-10T12:28:18.374Z,37.90
2018-08-10T12:30:50.818Z,38.70
2018-08-10T12:33:23.473Z,38.70
2018-08-10T12:35:56.195Z,38.50
2018-08-10T12:38:28.592Z,38.50
2018-08-10T12:41:00.983Z,38.70
2018-08-10T12:43:33.402Z,38.70
2018-08-10T12:46:06.130Z,39.10
2018-08-10T12:48:38.623Z,39.30
2018-08-10T12:51:11.007Z,38.40
2018-08-10T12:53:43.402Z,39.80
2018-08-10T12:56:15.831Z,38.90
2018-08-10T12:58:48.234Z,39.90
2018-08-10T13:01:20.613Z,38.40
2018-08-10T13:03:53.013Z,37.00
2018-08-10T13:06:25.638Z,37.80
2018-08-10T13:08:58.050Z,38.20
2018-08-10T13:11:30.490Z,37.40
2018-08-10T13:14:03.159Z,36.50
2018-08-10T13:16:35.635Z,37.30
2018-08-10T13:19:08.315Z,38.10
2018-08-10T13:21:40.704Z,37.80
2018-08-10T13:24:13.127Z,38.00
2018-08-10T13:26:45.631Z,36.80
2018-08-10T13:29:18.022Z,38.00
2018-08-10T13:31:50.411Z,37.30
2018-08-10T13:34:22.813Z,38.30
2018-08-10T13:36:55.200Z,36.90
2018-08-10T13:39:27.609Z,39.20
2018-08-10T13:42:00.257Z,37.70
2018-08-10T13:44:32.988Z,36.60
2018-08-10T13:47:05.634Z,39.20
2018-08-10T13:49:38.026Z,38.40
2018-08-10T13:52:10.433Z,38.20
2018-08-10T13:54:43.051Z,39.70
2018-08-10T13:57:15.467Z,38.20
2018-08-10T13:59:47.873Z,38.10
2018-08-10T14:02:20.277Z,38.60
2018-08-10T14:04:52.689Z,38.50
2018-08-10T14:07:25.093Z,38.60
2018-08-10T14:09:57.518Z,40.20
2018-08-10T14:12:29.925Z,39.10
2018-08-10T14:15:02.357Z,39.00
2018-08-10T14:17:34.750Z,38.90
2018-08-10T14:20:07.234Z,39.20
2018-08-10T14:22:39.937Z,38.70
2018-08-10T14:25:12.337Z,38.80
2018-08-10T14:27:44.762Z,38.50
2018-08-10T14:30:17.174Z,38.60
2018-08-10T14:32:49.595Z,38.80
2018-08-10T14:35:22.010Z,39.10
2018-08-10T14:37:54.698Z,39.00
2018-08-10T14:40:27.575Z,38.80
2018-08-10T14:42:59.981Z,38.90
2018-08-10T14:45:32.701Z,38.20
2018-08-10T14:48:05.111Z,38.70
2018-08-10T14:50:37.501Z,39.50
2018-08-10T14:53:09.919Z,37.80
2018-08-10T14:55:42.326Z,36.40
2018-08-10T14:58:15.005Z,36.60
2018-08-10T15:00:47.510Z,37.10
2018-08-10T15:03:20.131Z,36.40
2018-08-10T15:05:52.531Z,35.80
2018-08-10T15:08:25.205Z,37.90
2018-08-10T15:10:57.599Z,37.40
2018-08-10T15:13:30.010Z,36.90
2018-08-10T15:16:02.401Z,37.30
2018-08-10T15:18:34.949Z,38.10
2018-08-10T15:21:07.353Z,37.60
2018-08-10T15:23:39.787Z,38.80
2018-08-10T15:26:12.198Z,37.80
2018-08-10T15:28:44.610Z,37.80
2018-08-10T15:31:17.573Z,36.50
2018-08-10T15:33:50.253Z,36.00
2018-08-10T15:36:22.881Z,36.90
2018-08-10T15:38:55.609Z,35.80
2018-08-10T15:41:28.291Z,37.10
2018-08-10T15:44:00.762Z,35.60
2018-08-10T15:46:33.411Z,36.00
2018-08-10T15:49:05.916Z,36.70
2018-08-10T15:51:38.593Z,34.80
2018-08-10T15:54:11.066Z,36.00
2018-08-10T15:56:43.503Z,36.10
2018-08-10T15:59:16.324Z,37.10
2018-08-10T16:01:48.761Z,35.70
2018-08-10T16:04:21.454Z,36.40
2018-08-10T16:06:53.879Z,36.20
2018-08-10T16:09:26.425Z,36.20
2018-08-10T16:11:59.054Z,36.20
2018-08-10T16:14:31.986Z,37.50
2018-08-10T16:17:04.510Z,37.20
2018-08-10T16:19:36.954Z,36.90
2018-08-10T16:22:09.360Z,37.30
2018-08-10T16:24:41.803Z,35.60
2018-08-10T16:27:14.186Z,36.20
2018-08-10T16:29:46.630Z,36.50
2018-08-10T16:32:19.058Z,35.80
2018-08-10T16:34:51.501Z,37.30
2018-08-10T16:37:23.901Z,37.60
2018-08-10T16:39:56.835Z,37.80
2018-08-10T16:42:29.577Z,38.40
2018-08-10T16:45:02.292Z,38.20
2018-08-10T16:47:34.721Z,38.40
2018-08-10T16:50:09.657Z,38.50
2018-08-10T16:52:42.281Z,38.10
2018-08-10T16:55:14.705Z,38.40
2018-08-10T16:57:47.130Z,40.40
2018-08-10T17:00:19.978Z,40.10
2018-08-10T17:02:52.475Z,39.50
2018-08-10T17:05:25.043Z,39.80
2018-08-10T17:07:57.302Z,38.90
2018-08-10T17:10:29.716Z,39.90
2018-08-10T17:13:02.107Z,40.30
2018-08-10T17:15:34.521Z,39.50
2018-08-10T17:18:07.045Z,40.10
2018-08-10T17:20:39.514Z,40.50
2018-08-10T17:23:11.906Z,40.10
2018-08-10T17:25:44.537Z,40.70
2018-08-10T17:28:16.929Z,40.50
2018-08-10T17:30:49.381Z,40.80
2018-08-10T17:33:22.061Z,40.60
2018-08-10T17:35:54.535Z,41.70
2018-08-10T17:38:26.989Z,40.50
2018-08-10T17:40:59.393Z,40.50
2018-08-10T17:43:32.104Z,40.50
2018-08-10T17:46:04.882Z,40.60
2018-08-10T17:48:37.292Z,40.70
2018-08-10T17:51:09.993Z,41.70
2018-08-10T17:53:42.468Z,42.00
2018-08-10T17:56:15.209Z,42.30
2018-08-10T17:58:47.983Z,42.60
2018-08-10T18:01:20.309Z,42.20
2018-08-10T18:03:52.761Z,44.20
2018-08-10T18:06:25.162Z,43.00
2018-08-10T18:08:57.924Z,43.20
2018-08-10T18:11:30.570Z,43.40
2018-08-10T18:14:03.342Z,43.00
2018-08-10T18:16:35.774Z,43.30
2018-08-10T18:19:08.216Z,43.10
2018-08-10T18:21:40.806Z,43.70
2018-08-10T18:24:13.621Z,44.20
2018-08-10T18:26:46.197Z,43.40
2018-08-10T18:29:18.841Z,43.40
2018-08-10T18:31:51.625Z,42.80
2018-08-10T18:34:24.099Z,43.40
2018-08-10T18:36:56.573Z,44.00
2018-08-10T18:39:29.254Z,43.50
2018-08-10T18:42:01.674Z,44.00
2018-08-10T18:44:34.306Z,44.20
2018-08-10T18:47:06.747Z,44.60
2018-08-10T18:49:39.124Z,44.30
2018-08-10T18:52:11.624Z,44.40
2018-08-10T18:54:44.051Z,44.80
2018-08-10T18:57:16.451Z,44.70
2018-08-10T18:59:48.846Z,44.50
2018-08-10T19:02:21.230Z,44.20
2018-08-10T19:04:53.898Z,45.10
2018-08-10T19:07:26.281Z,44.90
2018-08-10T19:09:58.657Z,46.00
2018-08-10T19:12:31.295Z,45.20
2018-08-10T19:15:05.891Z,45.40
2018-08-10T19:17:38.310Z,45.10
2018-08-10T19:20:11.134Z,45.40
2018-08-10T19:22:43.529Z,45.60
2018-08-10T19:25:16.114Z,46.40
2018-08-10T19:27:48.476Z,45.50
2018-08-10T19:30:21.207Z,46.00
2018-08-10T19:32:53.932Z,46.10
2018-08-10T19:35:26.388Z,46.00
2018-08-10T19:37:59.036Z,46.20
2018-08-10T19:40:31.425Z,47.10
2018-08-10T19:43:03.809Z,47.50
2018-08-10T19:45:36.225Z,47.00
2018-08-10T19:48:08.631Z,47.50
2018-08-10T19:50:41.083Z,47.10
2018-08-10T19:53:13.671Z,47.40
2018-08-10T19:55:46.069Z,47.50
2018-08-10T19:58:18.451Z,47.70
2018-08-10T20:00:51.213Z,48.00
2018-08-10T20:03:23.658Z,47.80
2018-08-10T20:05:56.132Z,48.60
2018-08-10T20:08:28.607Z,48.40
2018-08-10T20:11:01.017Z,48.30
2018-08-10T20:13:33.658Z,49.70
2018-08-10T20:16:06.130Z,48.50
2018-08-10T20:18:38.809Z,48.60
2018-08-10T20:21:11.216Z,49.60
2018-08-10T20:23:43.625Z,49.00
2018-08-10T20:26:16.130Z,50.60
2018-08-10T20:28:48.505Z,49.60
2018-08-10T20:31:20.907Z,49.50
2018-08-10T20:33:53.552Z,50.00
2018-08-10T20:36:26.232Z,50.30
2018-08-10T20:38:58.708Z,50.30
2018-08-10T20:41:31.401Z,50.30
2018-08-10T20:44:03.822Z,50.70
2018-08-10T20:46:36.813Z,51.00
2018-08-10T20:49:09.210Z,51.40
2018-08-10T20:51:41.597Z,52.10
2018-08-10T20:54:14.006Z,51.50
2018-08-10T20:56:46.427Z,52.10
2018-08-10T20:59:18.805Z,52.30
2018-08-10T21:01:51.244Z,52.60
2018-08-10T21:04:23.798Z,52.60
2018-08-10T21:06:56.153Z,53.20
2018-08-10T21:09:28.597Z,52.80
2018-08-10T21:12:00.998Z,53.00
2018-08-10T21:14:33.393Z,53.30
2018-08-10T21:17:05.821Z,53.40
2018-08-10T21:19:38.201Z,53.60
2018-08-10T21:22:10.662Z,53.30
2018-08-10T21:24:43.135Z,54.20
2018-08-10T21:27:15.816Z,54.40
2018-08-10T21:29:48.187Z,54.60
2018-08-10T21:32:20.589Z,55.20
2018-08-10T21:34:52.987Z,55.00
2018-08-10T21:37:25.386Z,55.30
2018-08-10T21:39:57.977Z,55.20
2018-08-10T21:42:30.376Z,55.40
2018-08-10T21:45:03.042Z,56.00
2018-08-10T21:47:35.480Z,56.00
2018-08-10T21:50:08.650Z,56.20
2018-08-10T21:52:41.167Z,56.70
2018-08-10T21:55:13.641Z,56.50
2018-08-10T21:57:46.044Z,57.00
2018-08-10T22:00:22.582Z,56.90
2018-08-10T22:02:54.977Z,57.20
2018-08-10T22:05:27.409Z,57.60
2018-08-10T22:07:59.834Z,57.50
2018-08-10T22:10:32.582Z,58.50
2018-08-10T22:13:05.020Z,58.00
2018-08-10T22:15:37.633Z,58.90
2018-08-10T22:18:10.031Z,58.70
2018-08-10T22:20:42.414Z,58.60
2018-08-10T22:23:14.853Z,58.90
2018-08-10T22:25:47.246Z,59.80
2018-08-10T22:28:19.693Z,59.60
2018-08-10T22:30:52.126Z,59.80
2018-08-10T22:33:24.529Z,59.80
2018-08-10T22:35:57.226Z,60.70
2018-08-10T22:38:29.629Z,60.50
2018-08-10T22:41:02.047Z,61.20
2018-08-10T22:43:34.729Z,61.60
2018-08-10T22:46:07.139Z,61.50
2018-08-10T22:48:39.794Z,61.40
2018-08-10T22:51:12.258Z,62.20
2018-08-10T22:53:44.742Z,61.80
2018-08-10T22:56:17.218Z,62.60
2018-08-10T22:58:49.894Z,62.60
2018-08-10T23:01:22.273Z,63.10
2018-08-10T23:03:54.948Z,63.00
2018-08-10T23:06:27.627Z,63.90
2018-08-10T23:09:00.043Z,63.70
2018-08-10T23:11:32.437Z,63.50
2018-08-10T23:14:04.854Z,63.70
2018-08-10T23:16:37.258Z,63.90
2018-08-10T23:19:09.788Z,64.10
2018-08-10T23:21:42.487Z,64.50
2018-08-10T23:24:14.894Z,64.50
2018-08-10T23:26:47.589Z,64.30
2018-08-10T23:29:20.013Z,64.80
2018-08-10T23:31:52.420Z,64.80
2018-08-10T23:34:25.116Z,64.50
2018-08-10T23:36:57.560Z,64.80
2018-08-10T23:39:30.005Z,65.50
2018-08-10T23:42:02.418Z,64.70
2018-08-10T23:44:34.843Z,64.90
2018-08-10T23:47:07.346Z,65.00
2018-08-10T23:49:39.748Z,64.70
2018-08-10T23:52:12.377Z,64.70
2018-08-10T23:54:44.896Z,65.40
2018-08-10T23:57:17.577Z,65.00
2018-08-10T23:59:50.014Z,64.90
